createdAt,value
2022-08-11T00:01:54.552Z,51.82
2022-08-11T00:04:23.718Z,51.92
2022-08-11T00:06:54.919Z,51.96
2022-08-11T00:09:24.718Z,52.03
2022-08-11T00:11:53.915Z,52.02
2022-08-11T00:14:36.929Z,52.35
2022-08-11T00:17:08.898Z,51.79
2022-08-11T00:20:12.207Z,51.76
2022-08-11T00:22:26.632Z,51.78
2022-08-11T00:24:58.513Z,52.28
2022-08-11T00:27:34.888Z,52.07
2022-08-11T00:30:03.001Z,52.59
2022-08-11T00:32:32.328Z,52.44
2022-08-11T00:35:51.249Z,52.87
2022-08-11T00:37:50.572Z,52.98
2022-08-11T00:40:24.674Z,52.88
2022-08-11T00:43:01.726Z,52.99
2022-08-11T00:45:35.079Z,53.14
2022-08-11T00:48:06.614Z,53.10
2022-08-11T00:50:42.354Z,53.15
2022-08-11T00:53:33.867Z,53.39
2022-08-11T00:56:43.585Z,53.11
2022-08-11T00:59:46.345Z,53.39
2022-08-11T01:02:17.880Z,53.44
2022-08-11T01:05:23.294Z,53.53
2022-08-11T01:08:26.538Z,53.15
2022-08-11T01:11:24.220Z,53.02
2022-08-11T01:14:33.918Z,53.58
2022-08-11T01:17:14.808Z,53.32
2022-08-11T01:20:47.009Z,53.75
2022-08-11T01:23:43.153Z,53.67
2022-08-11T01:26:44.468Z,53.63
2022-08-11T01:29:49.476Z,53.74
2022-08-11T01:32:50.001Z,53.76
2022-08-11T01:35:41.668Z,53.72
2022-08-11T01:38:39.758Z,53.85
2022-08-11T01:41:48.268Z,53.70
2022-08-11T01:44:53.328Z,53.78
2022-08-11T01:47:52.403Z,53.85
2022-08-11T01:50:37.250Z,54.03
2022-08-11T01:53:22.835Z,54.07
2022-08-11T01:55:57.878Z,53.84
2022-08-11T01:58:43.196Z,54.05
2022-08-11T02:01:29.736Z,54.26
2022-08-11T02:04:00.753Z,54.46
2022-08-11T02:06:53.050Z,54.41
2022-08-11T02:09:30.558Z,54.23
2022-08-11T02:12:03.979Z,54.20
2022-08-11T02:14:38.813Z,54.58
2022-08-11T02:17:15.285Z,54.66
2022-08-11T02:20:09.426Z,54.54
2022-08-11T02:23:01.213Z,54.86
2022-08-11T02:25:32.682Z,54.65
2022-08-11T02:28:04.317Z,54.85
2022-08-11T02:30:36.198Z,54.53
2022-08-11T02:33:24.966Z,54.51
2022-08-11T02:36:02.447Z,54.96
2022-08-11T02:38:35.667Z,54.84
2022-08-11T02:41:30.591Z,55.21
2022-08-11T02:44:13.244Z,54.91
2022-08-11T02:46:48.827Z,55.02
2022-08-11T02:50:02.662Z,55.20
2022-08-11T02:52:38.946Z,55.15
2022-08-11T02:55:46.974Z,55.19
2022-08-11T02:58:15.791Z,55.19
2022-08-11T03:00:48.567Z,55.29
2022-08-11T03:03:20.302Z,55.43
2022-08-11T03:06:00.274Z,55.26
2022-08-11T03:08:40.572Z,55.57
2022-08-11T03:11:41.637Z,55.17
2022-08-11T03:14:34.533Z,55.65
2022-08-11T03:17:07.715Z,55.54
2022-08-11T03:20:00.878Z,55.55
2022-08-11T03:22:37.854Z,55.62
2022-08-11T03:25:13.064Z,55.49
2022-08-11T03:27:49.482Z,55.76
2022-08-11T03:30:22.769Z,55.94
2022-08-11T03:33:16.648Z,55.95
2022-08-11T03:35:56.587Z,56.03
2022-08-11T03:38:30.436Z,56.20
2022-08-11T03:42:01.120Z,56.00
2022-08-11T03:44:24.548Z,56.31
2022-08-11T03:47:07.920Z,56.27
2022-08-11T03:49:44.416Z,56.22
2022-08-11T03:52:18.302Z,56.19
2022-08-11T03:54:56.399Z,56.46
2022-08-11T03:57:51.311Z,56.52
2022-08-11T04:00:37.377Z,56.67
2022-08-11T04:06:43.348Z,56.76
2022-08-11T04:09:49.663Z,56.74
2022-08-11T04:12:45.732Z,56.77
2022-08-11T04:15:42.680Z,56.87
2022-08-11T04:18:57.178Z,56.87
2022-08-11T04:22:18.381Z,56.84
2022-08-11T04:25:00.362Z,56.54
2022-08-11T04:27:54.947Z,56.38
2022-08-11T04:30:28.944Z,56.67
2022-08-11T04:33:36.451Z,56.81
2022-08-11T04:36:13.882Z,57.00
2022-08-11T04:39:05.195Z,57.06
2022-08-11T04:42:15.163Z,56.91
2022-08-11T04:45:21.543Z,57.23
2022-08-11T04:48:09.339Z,57.37
2022-08-11T04:51:24.441Z,57.77
2022-08-11T04:54:19.120Z,57.46
2022-08-11T04:57:05.866Z,57.53
2022-08-11T05:00:27.751Z,58.28
2022-08-11T05:03:29.587Z,58.33
2022-08-11T05:06:18.678Z,57.75
2022-08-11T05:09:24.539Z,57.91
2022-08-11T05:12:03.995Z,58.40
2022-08-11T05:14:52.410Z,58.03
2022-08-11T05:17:43.690Z,58.12
2022-08-11T05:20:30.278Z,57.82
2022-08-11T05:23:20.249Z,58.00
2022-08-11T05:26:43.242Z,57.66
2022-08-11T05:29:20.081Z,58.15
2022-08-11T05:32:10.378Z,57.84
2022-08-11T05:34:51.789Z,58.01
2022-08-11T05:37:27.272Z,57.83
2022-08-11T05:40:16.160Z,57.56
2022-08-11T05:43:07.764Z,57.55
2022-08-11T05:46:03.704Z,57.39
2022-08-11T05:48:52.424Z,57.34
2022-08-11T05:51:37.655Z,57.30
2022-08-11T05:54:28.535Z,56.88
2022-08-11T05:57:00.829Z,56.85
2022-08-11T05:59:29.898Z,56.38
2022-08-11T06:02:02.355Z,56.33
2022-08-11T06:04:30.541Z,56.67
2022-08-11T06:06:59.131Z,55.99
2022-08-11T06:09:29.557Z,55.78
2022-08-11T06:12:01.687Z,55.59
2022-08-11T06:14:31.564Z,55.21
2022-08-11T06:17:01.172Z,55.25
2022-08-11T06:19:34.660Z,55.43
2022-08-11T06:22:03.847Z,55.33
2022-08-11T06:24:32.868Z,54.42
2022-08-11T06:27:12.278Z,54.95
2022-08-11T06:29:55.027Z,54.97
2022-08-11T06:32:25.905Z,54.70
2022-08-11T06:35:13.817Z,54.57
2022-08-11T06:37:47.161Z,54.12
2022-08-11T06:40:32.548Z,54.15
2022-08-11T06:43:04.401Z,53.54
2022-08-11T06:45:38.115Z,53.47
2022-08-11T06:48:06.533Z,53.30
2022-08-11T06:50:52.571Z,52.42
2022-08-11T06:53:21.263Z,52.48
2022-08-11T06:56:07.888Z,52.20
2022-08-11T06:58:55.238Z,51.79
2022-08-11T07:01:46.707Z,51.89
2022-08-11T07:04:23.424Z,51.59
2022-08-11T07:07:16.738Z,51.79
2022-08-11T07:10:20.308Z,51.31
2022-08-11T07:13:09.126Z,50.92
2022-08-11T07:16:11.702Z,51.02
2022-08-11T07:19:01.253Z,50.92
2022-08-11T07:22:02.435Z,50.15
2022-08-11T07:25:06.612Z,50.72
2022-08-11T07:27:52.530Z,50.54
2022-08-11T07:30:20.250Z,50.32
2022-08-11T07:32:51.428Z,50.32
2022-08-11T07:35:23.632Z,50.10
2022-08-11T07:38:01.819Z,50.21
2022-08-11T07:40:30.469Z,50.02
2022-08-11T07:42:58.867Z,49.89
2022-08-11T07:45:45.545Z,50.14
2022-08-11T07:48:31.380Z,49.88
2022-08-11T07:51:18.551Z,49.50
2022-08-11T07:54:03.077Z,49.64
2022-08-11T07:56:55.576Z,49.83
2022-08-11T07:59:57.585Z,50.11
2022-08-11T08:02:46.624Z,49.44
2022-08-11T08:05:33.610Z,49.74
2022-08-11T08:08:20.773Z,49.58
2022-08-11T08:11:06.070Z,49.58
2022-08-11T08:13:51.968Z,48.83
2022-08-11T08:16:38.198Z,49.23
2022-08-11T08:19:06.406Z,49.00
2022-08-11T08:21:34.282Z,48.84
2022-08-11T08:24:04.857Z,49.09
2022-08-11T08:26:51.749Z,48.33
2022-08-11T08:29:38.896Z,48.20
2022-08-11T08:32:08.512Z,48.22
2022-08-11T08:34:36.807Z,48.50
2022-08-11T08:37:16.276Z,48.83
2022-08-11T08:39:55.313Z,48.29
2022-08-11T08:42:32.241Z,47.91
2022-08-11T08:45:03.441Z,47.72
2022-08-11T08:47:42.032Z,48.15
2022-08-11T08:50:16.358Z,47.27
2022-08-11T08:52:50.599Z,47.46
2022-08-11T08:55:21.118Z,47.50
2022-08-11T08:57:51.215Z,47.96
2022-08-11T09:00:23.405Z,47.95
2022-08-11T09:02:53.032Z,47.47
2022-08-11T09:05:21.372Z,47.43
2022-08-11T09:07:53.430Z,47.01
2022-08-11T09:10:22.988Z,47.27
2022-08-11T09:12:51.561Z,47.70
2022-08-11T09:15:20.150Z,47.07
2022-08-11T09:17:49.793Z,46.84
2022-08-11T09:20:21.166Z,46.75
2022-08-11T09:24:07.495Z,46.45
2022-08-11T09:26:17.053Z,46.13
2022-08-11T09:28:46.121Z,46.16
2022-08-11T09:31:14.597Z,45.80
2022-08-11T09:33:43.925Z,45.55
2022-08-11T09:36:31.226Z,45.18
2022-08-11T09:39:17.342Z,45.38
2022-08-11T09:42:00.730Z,45.35
2022-08-11T09:44:48.860Z,45.27
2022-08-11T09:47:24.269Z,44.99
2022-08-11T09:49:53.884Z,44.68
2022-08-11T09:52:22.260Z,45.05
2022-08-11T09:54:51.093Z,44.40
2022-08-11T09:57:41.360Z,44.73
2022-08-11T10:00:13.335Z,44.29
2022-08-11T10:02:44.962Z,44.89
2022-08-11T10:05:33.713Z,44.75
2022-08-11T10:08:02.395Z,44.59
2022-08-11T10:10:31.117Z,44.30
2022-08-11T10:13:05.097Z,44.08
2022-08-11T10:15:59.988Z,43.05
2022-08-11T10:18:49.349Z,42.56
2022-08-11T10:21:28.394Z,42.85
2022-08-11T10:24:15.576Z,42.79
2022-08-11T10:26:54.465Z,42.37
2022-08-11T10:29:45.464Z,41.86
2022-08-11T10:32:49.434Z,40.96
2022-08-11T10:35:27.607Z,41.23
2022-08-11T10:38:08.084Z,40.84
2022-08-11T10:40:39.111Z,41.56
2022-08-11T10:43:07.108Z,41.29
2022-08-11T10:45:55.545Z,41.06
2022-08-11T10:48:25.375Z,41.35
2022-08-11T10:51:11.287Z,41.73
2022-08-11T10:54:00.023Z,41.90
2022-08-11T10:56:46.295Z,41.70
2022-08-11T10:59:14.475Z,41.62
2022-08-11T11:01:46.062Z,41.22
2022-08-11T11:04:15.776Z,41.50
2022-08-11T11:06:50.563Z,41.15
2022-08-11T11:09:21.435Z,40.38
2022-08-11T11:12:09.859Z,40.04
2022-08-11T11:14:59.073Z,40.21
2022-08-11T11:18:04.669Z,39.30
2022-08-11T11:20:38.638Z,39.93
2022-08-11T11:23:11.336Z,39.58
2022-08-11T11:26:07.554Z,39.74
2022-08-11T11:28:48.994Z,39.44
2022-08-11T11:31:28.633Z,39.49
2022-08-11T11:34:14.421Z,39.65
2022-08-11T11:36:47.107Z,39.51
2022-08-11T11:39:15.099Z,39.90
2022-08-11T11:41:43.459Z,40.14
2022-08-11T11:44:14.738Z,40.22
2022-08-11T11:46:45.510Z,40.61
2022-08-11T11:49:17.061Z,40.79
2022-08-11T11:51:45.944Z,40.05
2022-08-11T11:54:18.845Z,40.09
2022-08-11T11:56:47.585Z,39.95
2022-08-11T11:59:39.270Z,39.66
2022-08-11T12:02:07.633Z,39.09
2022-08-11T12:04:42.932Z,38.80
2022-08-11T12:07:28.902Z,38.58
2022-08-11T12:09:57.491Z,39.04
2022-08-11T12:12:43.775Z,39.18
2022-08-11T12:15:12.966Z,38.83
2022-08-11T12:17:41.223Z,38.34
2022-08-11T12:20:31.791Z,38.35
2022-08-11T12:23:17.433Z,38.92
2022-08-11T12:26:26.319Z,38.51
2022-08-11T12:28:51.551Z,38.53
2022-08-11T12:31:22.970Z,38.07
2022-08-11T12:33:50.932Z,38.36
2022-08-11T12:36:21.518Z,37.67
2022-08-11T12:38:51.770Z,37.83
2022-08-11T12:41:37.804Z,37.49
2022-08-11T12:44:39.154Z,37.63
2022-08-11T12:47:07.403Z,37.38
2022-08-11T12:49:55.165Z,37.58
2022-08-11T12:52:27.770Z,37.92
2022-08-11T12:55:00.011Z,37.66
2022-08-11T12:57:49.807Z,38.43
2022-08-11T13:00:36.457Z,37.95
2022-08-11T13:03:23.125Z,37.21
2022-08-11T13:05:53.631Z,37.75
2022-08-11T13:08:24.910Z,37.93
2022-08-11T13:11:11.205Z,37.33
2022-08-11T13:13:54.907Z,37.13
2022-08-11T13:16:26.664Z,36.98
2022-08-11T13:18:54.556Z,36.90
2022-08-11T13:21:23.742Z,37.04
2022-08-11T13:24:00.537Z,36.77
2022-08-11T13:26:37.464Z,37.34
2022-08-11T13:29:18.097Z,37.67
2022-08-11T13:31:47.017Z,37.16
2022-08-11T13:34:16.366Z,37.44
2022-08-11T13:36:44.807Z,37.17
2022-08-11T13:39:14.787Z,37.03
2022-08-11T13:41:45.292Z,36.60
2022-08-11T13:44:20.240Z,36.59
2022-08-11T13:46:53.366Z,36.91
2022-08-11T13:49:22.277Z,36.97
2022-08-11T13:51:50.702Z,36.32
2022-08-11T13:54:23.126Z,36.87
2022-08-11T13:56:53.656Z,37.54
2022-08-11T13:59:29.663Z,37.06
2022-08-11T14:02:20.482Z,36.40
2022-08-11T14:04:52.357Z,37.07
2022-08-11T14:07:23.405Z,36.73
2022-08-11T14:09:57.237Z,36.84
2022-08-11T14:12:45.317Z,36.51
2022-08-11T14:15:19.846Z,36.38
2022-08-11T14:17:51.627Z,36.23
2022-08-11T14:20:39.304Z,37.00
2022-08-11T14:23:08.729Z,36.31
2022-08-11T14:26:00.868Z,36.14
2022-08-11T14:28:35.152Z,36.95
2022-08-11T14:31:06.258Z,36.91
2022-08-11T14:33:53.581Z,36.76
2022-08-11T14:36:23.984Z,36.11
2022-08-11T14:38:53.503Z,35.96
2022-08-11T14:42:11.155Z,35.42
2022-08-11T14:44:49.422Z,35.33
2022-08-11T14:47:24.350Z,35.17
2022-08-11T14:50:09.609Z,34.81
2022-08-11T14:52:41.390Z,34.07
2022-08-11T14:55:26.797Z,34.43
2022-08-11T14:57:57.384Z,34.72
2022-08-11T15:00:26.337Z,34.90
2022-08-11T15:03:13.668Z,35.54
2022-08-11T15:05:55.773Z,35.58
2022-08-11T15:08:41.744Z,35.75
2022-08-11T15:11:31.651Z,35.53
2022-08-11T15:14:03.082Z,35.70
2022-08-11T15:16:49.154Z,35.62
2022-08-11T15:19:19.581Z,35.98
2022-08-11T15:22:04.997Z,35.83
2022-08-11T15:24:35.296Z,36.30
2022-08-11T15:27:23.692Z,36.10
2022-08-11T15:30:10.660Z,35.77
2022-08-11T15:33:06.736Z,36.36
2022-08-11T15:35:53.111Z,35.77
2022-08-11T15:38:21.396Z,34.61
2022-08-11T15:41:07.380Z,34.56
2022-08-11T15:43:57.756Z,34.23
2022-08-11T15:46:31.772Z,34.63
2022-08-11T15:49:01.285Z,33.69
2022-08-11T15:51:34.942Z,33.76
2022-08-11T15:54:09.260Z,33.72
2022-08-11T15:56:39.489Z,33.61
2022-08-11T15:59:42.133Z,33.83
2022-08-11T16:02:27.918Z,34.23
2022-08-11T16:04:56.613Z,34.11
2022-08-11T16:07:28.367Z,33.77
2022-08-11T16:10:01.057Z,33.80
2022-08-11T16:12:32.014Z,33.72
2022-08-11T16:15:20.827Z,33.98
2022-08-11T16:17:51.537Z,33.88
2022-08-11T16:20:22.553Z,33.42
2022-08-11T16:23:00.455Z,33.51
2022-08-11T16:27:02.158Z,34.10
2022-08-11T16:28:20.713Z,33.54
2022-08-11T16:30:48.975Z,33.71
2022-08-11T16:33:48.954Z,34.16
2022-08-11T16:36:25.056Z,34.65
2022-08-11T16:38:53.942Z,34.12
2022-08-11T16:41:37.916Z,34.58
2022-08-11T16:44:37.076Z,34.77
2022-08-11T16:47:07.189Z,35.01
2022-08-11T16:49:38.039Z,35.07
2022-08-11T16:52:11.050Z,34.93
2022-08-11T16:54:40.284Z,35.04
2022-08-11T16:57:32.460Z,34.80
2022-08-11T17:00:04.720Z,35.20
2022-08-11T17:02:51.879Z,35.17
2022-08-11T17:05:54.514Z,35.11
2022-08-11T17:08:57.683Z,35.58
2022-08-11T17:11:45.555Z,35.33
2022-08-11T17:14:16.474Z,35.62
2022-08-11T17:16:49.092Z,35.90
2022-08-11T17:20:40.391Z,36.09
2022-08-11T17:22:29.440Z,36.27
2022-08-11T17:24:57.504Z,35.98
2022-08-11T17:27:25.586Z,36.12
2022-08-11T17:29:57.733Z,36.04
2022-08-11T17:32:55.615Z,36.35
2022-08-11T17:35:31.980Z,36.48
2022-08-11T17:38:04.856Z,36.45
2022-08-11T17:40:37.038Z,36.64
2022-08-11T17:43:23.583Z,36.88
2022-08-11T17:46:08.920Z,36.89
2022-08-11T17:48:47.381Z,37.37
2022-08-11T17:51:38.948Z,37.01
2022-08-11T17:54:25.978Z,37.33
2022-08-11T17:57:20.434Z,37.33
2022-08-11T17:59:53.393Z,37.37
2022-08-11T18:02:41.480Z,37.58
2022-08-11T18:05:13.472Z,37.94
2022-08-11T18:07:59.935Z,38.05
2022-08-11T18:10:48.050Z,38.19
2022-08-11T18:13:34.007Z,38.31
2022-08-11T18:16:19.832Z,38.68
2022-08-11T18:19:05.213Z,38.60
2022-08-11T18:22:07.822Z,38.76
2022-08-11T18:24:57.065Z,38.90
2022-08-11T18:27:44.603Z,38.85
2022-08-11T18:30:30.418Z,39.28
2022-08-11T18:33:45.061Z,39.30
2022-08-11T18:36:23.573Z,39.33
2022-08-11T18:39:08.903Z,39.50
2022-08-11T18:41:54.910Z,40.20
2022-08-11T18:44:44.794Z,40.97
2022-08-11T18:47:32.626Z,41.88
2022-08-11T18:50:30.578Z,41.43
2022-08-11T18:53:24.780Z,41.04
2022-08-11T18:56:11.078Z,40.62
2022-08-11T18:59:00.885Z,41.25
2022-08-11T19:01:48.010Z,41.32
2022-08-11T19:04:37.918Z,41.55
2022-08-11T19:07:24.077Z,41.40
2022-08-11T19:10:09.849Z,41.41
2022-08-11T19:12:57.792Z,41.48
2022-08-11T19:15:43.557Z,40.81
2022-08-11T19:18:33.973Z,40.87
2022-08-11T19:21:19.745Z,41.06
2022-08-11T19:24:08.572Z,40.93
2022-08-11T19:26:54.494Z,40.95
2022-08-11T19:30:05.233Z,41.21
2022-08-11T19:32:47.653Z,41.09
2022-08-11T19:35:34.784Z,41.36
2022-08-11T19:38:21.676Z,41.35
2022-08-11T19:41:07.557Z,41.43
2022-08-11T19:43:54.065Z,41.30
2022-08-11T19:46:41.326Z,41.94
2022-08-11T19:49:27.096Z,41.79
2022-08-11T19:52:14.826Z,41.88
2022-08-11T19:55:00.858Z,41.60
2022-08-11T19:57:46.229Z,41.17
2022-08-11T20:00:34.275Z,40.36
2022-08-11T20:03:22.339Z,40.63
2022-08-11T20:06:08.366Z,40.97
2022-08-11T20:08:58.789Z,40.97
2022-08-11T20:11:44.886Z,40.92
2022-08-11T20:14:30.648Z,41.12
2022-08-11T20:17:16.500Z,41.38
2022-08-11T20:20:01.952Z,41.53
2022-08-11T20:22:48.611Z,42.14
2022-08-11T20:25:35.861Z,41.88
2022-08-11T20:28:22.138Z,42.06
2022-08-11T20:31:08.384Z,41.80
2022-08-11T20:33:54.268Z,42.13
2022-08-11T20:36:39.465Z,42.31
2022-08-11T20:39:25.565Z,42.80
2022-08-11T20:42:12.714Z,43.08
2022-08-11T20:44:57.923Z,43.13
2022-08-11T20:47:59.101Z,43.54
2022-08-11T20:50:46.668Z,43.96
2022-08-11T20:53:35.837Z,44.18
2022-08-11T20:56:22.680Z,44.64
2022-08-11T20:59:17.863Z,44.65
2022-08-11T21:02:04.509Z,45.00
2022-08-11T21:04:55.128Z,45.12
2022-08-11T21:07:41.854Z,45.30
2022-08-11T21:10:29.259Z,45.09
2022-08-11T21:13:25.818Z,45.60
2022-08-11T21:16:26.448Z,45.32
2022-08-11T21:19:16.285Z,45.50
2022-08-11T21:22:03.856Z,45.30
2022-08-11T21:24:49.929Z,45.76
2022-08-11T21:27:36.654Z,45.71
2022-08-11T21:30:22.513Z,46.01
2022-08-11T21:33:09.049Z,45.83
2022-08-11T21:35:54.488Z,45.77
2022-08-11T21:38:40.271Z,45.87
2022-08-11T21:41:25.667Z,45.74
2022-08-11T21:44:11.170Z,46.18
2022-08-11T21:46:57.408Z,46.29
2022-08-11T21:49:45.168Z,46.13
2022-08-11T21:52:30.541Z,46.42
2022-08-11T21:55:16.479Z,46.30
2022-08-11T21:58:02.346Z,45.70
2022-08-11T22:00:47.683Z,45.90
2022-08-11T22:03:49.453Z,46.09
2022-08-11T22:06:37.337Z,46.19
2022-08-11T22:09:22.889Z,46.51
2022-08-11T22:12:33.402Z,46.51
2022-08-11T22:15:13.717Z,46.60
2022-08-11T22:17:59.017Z,46.04
2022-08-11T22:20:45.349Z,46.51
2022-08-11T22:23:36.036Z,46.90
2022-08-11T22:26:21.913Z,47.19
2022-08-11T22:29:08.040Z,47.59
2022-08-11T22:31:54.608Z,47.14
2022-08-11T22:34:53.121Z,47.33
2022-08-11T22:37:39.817Z,47.40
2022-08-11T22:40:28.336Z,47.54
2022-08-11T22:43:13.855Z,47.68
2022-08-11T22:45:59.370Z,47.48
2022-08-11T22:48:45.548Z,47.52
2022-08-11T22:51:31.686Z,47.37
2022-08-11T22:54:19.130Z,47.97
2022-08-11T22:57:07.059Z,47.87
2022-08-11T22:59:53.860Z,48.21
2022-08-11T23:02:39.603Z,47.87
2022-08-11T23:05:27.289Z,48.06
2022-08-11T23:08:13.074Z,48.19
2022-08-11T23:10:58.978Z,48.16
2022-08-11T23:13:45.662Z,48.05
2022-08-11T23:16:31.601Z,47.99
2022-08-11T23:20:03.821Z,48.30
2022-08-11T23:22:22.864Z,48.13
2022-08-11T23:25:19.208Z,48.51
2022-08-11T23:28:04.897Z,48.70
2022-08-11T23:30:52.635Z,48.88
2022-08-11T23:33:39.143Z,48.38
2022-08-11T23:36:35.829Z,48.22
2022-08-11T23:39:29.644Z,48.56
2022-08-11T23:42:15.542Z,48.85
2022-08-11T23:45:01.324Z,48.83
2022-08-11T23:47:51.194Z,48.85
2022-08-11T23:50:37.589Z,48.82
2022-08-11T23:53:23.560Z,48.85
2022-08-11T23:56:09.230Z,48.72
2022-08-11T23:58:56.236Z,49.05
